sensor_id;sensor_type;location;lat;lon;timestamp;P1;durP1;ratioP1;P2;durP2;ratioP2
67768;SDS011;54569;52.018;5.584;2023-06-24T00:01:48;11.15;;;10.05;;
67768;SDS011;54569;52.018;5.584;2023-06-24T00:04:14;11.95;;;10.75;;
67768;SDS011;54569;52.018;5.584;2023-06-24T00:06:42;11.23;;;10.23;;
67768;SDS011;54569;52.018;5.584;2023-06-24T00:09:07;11.40;;;10.20;;
67768;SDS011;54569;52.018;5.584;2023-06-24T00:11:33;10.85;;;10.02;;
67768;SDS011;54569;52.018;5.584;2023-06-24T00:13:59;11.38;;;10.35;;
67768;SDS011;54569;52.018;5.584;2023-06-24T00:16:24;11.02;;;9.93;;
67768;SDS011;54569;52.018;5.584;2023-06-24T00:18:56;10.35;;;9.45;;
67768;SDS011;54569;52.018;5.584;2023-06-24T00:21:25;11.25;;;10.15;;
67768;SDS011;54569;52.018;5.584;2023-06-24T00:23:58;11.57;;;10.35;;
67768;SDS011;54569;52.018;5.584;2023-06-24T00:26:27;11.48;;;10.30;;
67768;SDS011;54569;52.018;5.584;2023-06-24T00:28:53;12.48;;;11.30;;
67768;SDS011;54569;52.018;5.584;2023-06-24T00:31:19;11.32;;;10.23;;
67768;SDS011;54569;52.018;5.584;2023-06-24T00:33:46;11.38;;;10.38;;
67768;SDS011;54569;52.018;5.584;2023-06-24T00:36:12;12.07;;;11.00;;
67768;SDS011;54569;52.018;5.584;2023-06-24T00:38:39;13.82;;;10.57;;
67768;SDS011;54569;52.018;5.584;2023-06-24T00:41:04;11.13;;;9.93;;
67768;SDS011;54569;52.018;5.584;2023-06-24T00:43:32;11.88;;;10.10;;
67768;SDS011;54569;52.018;5.584;2023-06-24T00:45:58;14.00;;;10.88;;
67768;SDS011;54569;52.018;5.584;2023-06-24T00:48:25;11.57;;;10.43;;
67768;SDS011;54569;52.018;5.584;2023-06-24T00:50:51;12.05;;;10.68;;
67768;SDS011;54569;52.018;5.584;2023-06-24T00:53:17;11.40;;;10.30;;
67768;SDS011;54569;52.018;5.584;2023-06-24T00:55:44;11.95;;;10.75;;
67768;SDS011;54569;52.018;5.584;2023-06-24T00:58:11;11.43;;;10.27;;
67768;SDS011;54569;52.018;5.584;2023-06-24T01:00:41;11.60;;;10.40;;
67768;SDS011;54569;52.018;5.584;2023-06-24T01:03:11;10.63;;;9.63;;
67768;SDS011;54569;52.018;5.584;2023-06-24T01:05:41;11.18;;;9.85;;
67768;SDS011;54569;52.018;5.584;2023-06-24T01:08:08;11.07;;;9.38;;
67768;SDS011;54569;52.018;5.584;2023-06-24T01:10:35;11.52;;;10.13;;
67768;SDS011;54569;52.018;5.584;2023-06-24T01:13:01;11.98;;;10.73;;
67768;SDS011;54569;52.018;5.584;2023-06-24T01:15:27;11.65;;;10.52;;
67768;SDS011;54569;52.018;5.584;2023-06-24T01:17:59;12.38;;;11.10;;
67768;SDS011;54569;52.018;5.584;2023-06-24T01:34:32;11.23;;;10.05;;
67768;SDS011;54569;52.018;5.584;2023-06-24T01:39:46;11.95;;;10.70;;
67768;SDS011;54569;52.018;5.584;2023-06-24T01:42:15;13.35;;;11.98;;
67768;SDS011;54569;52.018;5.584;2023-06-24T01:44:43;12.50;;;11.23;;
67768;SDS011;54569;52.018;5.584;2023-06-24T01:47:12;11.85;;;10.25;;
67768;SDS011;54569;52.018;5.584;2023-06-24T01:49:43;14.48;;;11.65;;
67768;SDS011;54569;52.018;5.584;2023-06-24T01:52:11;13.77;;;11.40;;
67768;SDS011;54569;52.018;5.584;2023-06-24T01:54:38;13.88;;;12.43;;
67768;SDS011;54569;52.018;5.584;2023-06-24T01:57:07;13.13;;;11.80;;
67768;SDS011;54569;52.018;5.584;2023-06-24T01:59:35;12.55;;;11.25;;
67768;SDS011;54569;52.018;5.584;2023-06-24T02:02:05;14.27;;;12.77;;
67768;SDS011;54569;52.018;5.584;2023-06-24T02:04:32;12.75;;;11.43;;
67768;SDS011;54569;52.018;5.584;2023-06-24T02:07:01;15.20;;;13.60;;
67768;SDS011;54569;52.018;5.584;2023-06-24T02:09:29;14.23;;;12.88;;
67768;SDS011;54569;52.018;5.584;2023-06-24T02:11:57;14.68;;;13.18;;
67768;SDS011;54569;52.018;5.584;2023-06-24T02:14:25;17.20;;;13.88;;
67768;SDS011;54569;52.018;5.584;2023-06-24T02:16:52;14.70;;;13.00;;
67768;SDS011;54569;52.018;5.584;2023-06-24T02:19:21;14.90;;;13.45;;
67768;SDS011;54569;52.018;5.584;2023-06-24T02:21:56;16.10;;;13.30;;
67768;SDS011;54569;52.018;5.584;2023-06-24T02:24:26;15.73;;;14.13;;
67768;SDS011;54569;52.018;5.584;2023-06-24T02:26:54;13.60;;;12.15;;
67768;SDS011;54569;52.018;5.584;2023-06-24T02:29:22;14.95;;;13.38;;
67768;SDS011;54569;52.018;5.584;2023-06-24T02:31:50;15.77;;;12.35;;
67768;SDS011;54569;52.018;5.584;2023-06-24T02:34:18;15.23;;;13.20;;
67768;SDS011;54569;52.018;5.584;2023-06-24T02:36:45;15.38;;;13.77;;
67768;SDS011;54569;52.018;5.584;2023-06-24T02:39:11;15.48;;;13.98;;
67768;SDS011;54569;52.018;5.584;2023-06-24T02:41:37;15.23;;;13.73;;
67768;SDS011;54569;52.018;5.584;2023-06-24T02:44:02;14.68;;;13.10;;
67768;SDS011;54569;52.018;5.584;2023-06-24T02:46:28;15.52;;;13.95;;
67768;SDS011;54569;52.018;5.584;2023-06-24T02:48:56;15.15;;;13.55;;
67768;SDS011;54569;52.018;5.584;2023-06-24T02:51:23;14.57;;;13.15;;
67768;SDS011;54569;52.018;5.584;2023-06-24T02:53:50;15.70;;;14.10;;
67768;SDS011;54569;52.018;5.584;2023-06-24T02:56:20;15.00;;;13.40;;
67768;SDS011;54569;52.018;5.584;2023-06-24T02:58:47;16.75;;;14.23;;
67768;SDS011;54569;52.018;5.584;2023-06-24T03:01:25;15.38;;;13.75;;
67768;SDS011;54569;52.018;5.584;2023-06-24T03:03:54;14.95;;;13.45;;
67768;SDS011;54569;52.018;5.584;2023-06-24T03:06:21;13.65;;;12.15;;
67768;SDS011;54569;52.018;5.584;2023-06-24T03:08:48;13.48;;;12.07;;
67768;SDS011;54569;52.018;5.584;2023-06-24T03:11:16;17.95;;;12.80;;
67768;SDS011;54569;52.018;5.584;2023-06-24T03:13:42;14.70;;;13.30;;
67768;SDS011;54569;52.018;5.584;2023-06-24T03:16:24;15.70;;;13.85;;
67768;SDS011;54569;52.018;5.584;2023-06-24T03:18:57;15.60;;;14.10;;
67768;SDS011;54569;52.018;5.584;2023-06-24T03:21:23;14.63;;;13.23;;
67768;SDS011;54569;52.018;5.584;2023-06-24T03:23:54;15.65;;;13.38;;
67768;SDS011;54569;52.018;5.584;2023-06-24T03:26:20;17.73;;;13.93;;
67768;SDS011;54569;52.018;5.584;2023-06-24T03:28:45;17.40;;;14.43;;
67768;SDS011;54569;52.018;5.584;2023-06-24T03:31:15;19.25;;;14.82;;
67768;SDS011;54569;52.018;5.584;2023-06-24T03:33:41;14.93;;;13.30;;
67768;SDS011;54569;52.018;5.584;2023-06-24T03:36:11;16.15;;;14.55;;
67768;SDS011;54569;52.018;5.584;2023-06-24T03:38:38;16.38;;;14.70;;
67768;SDS011;54569;52.018;5.584;2023-06-24T03:41:05;18.50;;;14.25;;
67768;SDS011;54569;52.018;5.584;2023-06-24T03:43:31;18.15;;;14.40;;
67768;SDS011;54569;52.018;5.584;2023-06-24T03:45:58;17.77;;;14.32;;
67768;SDS011;54569;52.018;5.584;2023-06-24T03:48:25;15.57;;;13.55;;
67768;SDS011;54569;52.018;5.584;2023-06-24T03:50:51;17.10;;;14.98;;
67768;SDS011;54569;52.018;5.584;2023-06-24T03:53:17;18.30;;;14.93;;
67768;SDS011;54569;52.018;5.584;2023-06-24T03:55:43;16.80;;;14.10;;
67768;SDS011;54569;52.018;5.584;2023-06-24T03:58:08;16.63;;;14.13;;
67768;SDS011;54569;52.018;5.584;2023-06-24T04:00:34;18.17;;;14.77;;
67768;SDS011;54569;52.018;5.584;2023-06-24T04:03:06;18.35;;;14.70;;
67768;SDS011;54569;52.018;5.584;2023-06-24T04:05:33;14.40;;;12.73;;
67768;SDS011;54569;52.018;5.584;2023-06-24T04:07:59;15.82;;;12.95;;
67768;SDS011;54569;52.018;5.584;2023-06-24T04:10:24;16.88;;;13.35;;
67768;SDS011;54569;52.018;5.584;2023-06-24T04:12:50;17.33;;;13.65;;
67768;SDS011;54569;52.018;5.584;2023-06-24T04:15:16;14.30;;;12.82;;
67768;SDS011;54569;52.018;5.584;2023-06-24T04:17:42;16.30;;;14.30;;
67768;SDS011;54569;52.018;5.584;2023-06-24T04:20:08;15.05;;;12.63;;
67768;SDS011;54569;52.018;5.584;2023-06-24T04:22:40;12.95;;;11.25;;
67768;SDS011;54569;52.018;5.584;2023-06-24T04:25:07;14.90;;;11.63;;
67768;SDS011;54569;52.018;5.584;2023-06-24T04:27:34;12.30;;;10.98;;
67768;SDS011;54569;52.018;5.584;2023-06-24T04:30:02;14.25;;;11.30;;
67768;SDS011;54569;52.018;5.584;2023-06-24T04:32:29;14.88;;;12.20;;
67768;SDS011;54569;52.018;5.584;2023-06-24T04:34:55;13.98;;;11.55;;
67768;SDS011;54569;52.018;5.584;2023-06-24T04:37:21;13.85;;;11.43;;
67768;SDS011;54569;52.018;5.584;2023-06-24T04:39:48;13.55;;;11.02;;
67768;SDS011;54569;52.018;5.584;2023-06-24T04:42:14;14.10;;;12.55;;
67768;SDS011;54569;52.018;5.584;2023-06-24T04:44:40;13.10;;;11.45;;
67768;SDS011;54569;52.018;5.584;2023-06-24T04:47:05;13.77;;;11.75;;
67768;SDS011;54569;52.018;5.584;2023-06-24T04:49:31;15.40;;;12.00;;
67768;SDS011;54569;52.018;5.584;2023-06-24T04:51:59;14.05;;;11.77;;
67768;SDS011;54569;52.018;5.584;2023-06-24T04:54:26;13.48;;;11.98;;
67768;SDS011;54569;52.018;5.584;2023-06-24T04:56:52;13.65;;;11.57;;
67768;SDS011;54569;52.018;5.584;2023-06-24T04:59:20;12.95;;;11.02;;
67768;SDS011;54569;52.018;5.584;2023-06-24T05:01:46;13.55;;;10.98;;
67768;SDS011;54569;52.018;5.584;2023-06-24T05:04:12;12.45;;;10.27;;
67768;SDS011;54569;52.018;5.584;2023-06-24T05:06:38;13.45;;;9.25;;
67768;SDS011;54569;52.018;5.584;2023-06-24T05:09:04;14.10;;;9.57;;
67768;SDS011;54569;52.018;5.584;2023-06-24T05:11:30;9.90;;;8.93;;
67768;SDS011;54569;52.018;5.584;2023-06-24T05:13:56;12.15;;;9.48;;
67768;SDS011;54569;52.018;5.584;2023-06-24T05:16:21;14.43;;;9.93;;
67768;SDS011;54569;52.018;5.584;2023-06-24T05:18:49;9.82;;;8.38;;
67768;SDS011;54569;52.018;5.584;2023-06-24T05:21:15;12.02;;;7.30;;
67768;SDS011;54569;52.018;5.584;2023-06-24T05:23:41;10.35;;;7.85;;
67768;SDS011;54569;52.018;5.584;2023-06-24T05:26:06;8.68;;;7.35;;
67768;SDS011;54569;52.018;5.584;2023-06-24T05:28:32;8.85;;;6.57;;
67768;SDS011;54569;52.018;5.584;2023-06-24T05:30:58;7.80;;;5.88;;
67768;SDS011;54569;52.018;5.584;2023-06-24T05:33:23;6.57;;;5.93;;
67768;SDS011;54569;52.018;5.584;2023-06-24T05:35:49;7.72;;;5.45;;
67768;SDS011;54569;52.018;5.584;2023-06-24T05:38:15;6.20;;;5.50;;
67768;SDS011;54569;52.018;5.584;2023-06-24T05:40:41;7.85;;;5.68;;
67768;SDS011;54569;52.018;5.584;2023-06-24T05:43:07;8.05;;;5.57;;
67768;SDS011;54569;52.018;5.584;2023-06-24T05:45:32;6.05;;;5.10;;
67768;SDS011;54569;52.018;5.584;2023-06-24T05:47:58;7.18;;;5.72;;
67768;SDS011;54569;52.018;5.584;2023-06-24T05:50:24;7.50;;;5.45;;
67768;SDS011;54569;52.018;5.584;2023-06-24T05:52:49;7.05;;;5.53;;
67768;SDS011;54569;52.018;5.584;2023-06-24T05:55:15;6.70;;;5.65;;
67768;SDS011;54569;52.018;5.584;2023-06-24T05:57:41;6.13;;;5.35;;
67768;SDS011;54569;52.018;5.584;2023-06-24T06:00:07;8.95;;;6.35;;
67768;SDS011;54569;52.018;5.584;2023-06-24T06:02:41;7.25;;;6.38;;
67768;SDS011;54569;52.018;5.584;2023-06-24T06:05:07;8.05;;;5.55;;
67768;SDS011;54569;52.018;5.584;2023-06-24T06:07:33;7.40;;;6.05;;
67768;SDS011;54569;52.018;5.584;2023-06-24T06:09:59;8.00;;;6.30;;
67768;SDS011;54569;52.018;5.584;2023-06-24T06:12:25;7.78;;;5.70;;
67768;SDS011;54569;52.018;5.584;2023-06-24T06:14:51;7.10;;;6.05;;
67768;SDS011;54569;52.018;5.584;2023-06-24T06:17:17;6.47;;;5.75;;
67768;SDS011;54569;52.018;5.584;2023-06-24T06:19:42;7.57;;;5.55;;
67768;SDS011;54569;52.018;5.584;2023-06-24T06:22:11;6.95;;;5.45;;
67768;SDS011;54569;52.018;5.584;2023-06-24T06:24:37;8.18;;;5.70;;
67768;SDS011;54569;52.018;5.584;2023-06-24T06:27:03;6.28;;;5.68;;
67768;SDS011;54569;52.018;5.584;2023-06-24T06:29:29;7.28;;;5.53;;
67768;SDS011;54569;52.018;5.584;2023-06-24T06:31:55;8.75;;;5.88;;
67768;SDS011;54569;52.018;5.584;2023-06-24T06:34:22;6.00;;;5.07;;
67768;SDS011;54569;52.018;5.584;2023-06-24T06:36:47;5.40;;;4.82;;
67768;SDS011;54569;52.018;5.584;2023-06-24T06:39:13;6.78;;;4.50;;
67768;SDS011;54569;52.018;5.584;2023-06-24T06:41:39;7.10;;;4.70;;
67768;SDS011;54569;52.018;5.584;2023-06-24T06:44:14;4.28;;;3.88;;
67768;SDS011;54569;52.018;5.584;2023-06-24T06:46:39;4.75;;;4.18;;
67768;SDS011;54569;52.018;5.584;2023-06-24T06:49:05;5.40;;;4.90;;
67768;SDS011;54569;52.018;5.584;2023-06-24T06:51:31;4.53;;;3.85;;
67768;SDS011;54569;52.018;5.584;2023-06-24T06:53:56;4.82;;;4.30;;
67768;SDS011;54569;52.018;5.584;2023-06-24T06:56:23;5.45;;;4.22;;
67768;SDS011;54569;52.018;5.584;2023-06-24T06:58:49;4.85;;;3.92;;
67768;SDS011;54569;52.018;5.584;2023-06-24T07:01:15;5.60;;;4.13;;
67768;SDS011;54569;52.018;5.584;2023-06-24T07:03:42;4.45;;;4.05;;
67768;SDS011;54569;52.018;5.584;2023-06-24T07:06:08;4.80;;;4.07;;
67768;SDS011;54569;52.018;5.584;2023-06-24T07:08:34;5.50;;;4.50;;
67768;SDS011;54569;52.018;5.584;2023-06-24T07:11:00;4.95;;;4.30;;
67768;SDS011;54569;52.018;5.584;2023-06-24T07:13:27;5.47;;;4.28;;
67768;SDS011;54569;52.018;5.584;2023-06-24T07:15:53;6.00;;;3.92;;
67768;SDS011;54569;52.018;5.584;2023-06-24T07:18:18;5.80;;;4.60;;
67768;SDS011;54569;52.018;5.584;2023-06-24T07:20:44;8.55;;;4.97;;
67768;SDS011;54569;52.018;5.584;2023-06-24T07:23:10;5.55;;;5.03;;
67768;SDS011;54569;52.018;5.584;2023-06-24T07:25:36;6.07;;;5.28;;
67768;SDS011;54569;52.018;5.584;2023-06-24T07:28:02;6.38;;;5.10;;
67768;SDS011;54569;52.018;5.584;2023-06-24T07:30:28;5.70;;;4.60;;
67768;SDS011;54569;52.018;5.584;2023-06-24T07:32:54;7.43;;;5.18;;
67768;SDS011;54569;52.018;5.584;2023-06-24T07:35:20;5.78;;;5.20;;
67768;SDS011;54569;52.018;5.584;2023-06-24T07:37:46;6.47;;;5.15;;
67768;SDS011;54569;52.018;5.584;2023-06-24T07:40:11;7.57;;;5.22;;
67768;SDS011;54569;52.018;5.584;2023-06-24T07:42:37;5.55;;;5.05;;
67768;SDS011;54569;52.018;5.584;2023-06-24T07:45:03;6.03;;;4.90;;
67768;SDS011;54569;52.018;5.584;2023-06-24T07:47:29;5.10;;;4.60;;
67768;SDS011;54569;52.018;5.584;2023-06-24T07:49:57;5.22;;;4.25;;
67768;SDS011;54569;52.018;5.584;2023-06-24T07:52:22;4.35;;;3.88;;
67768;SDS011;54569;52.018;5.584;2023-06-24T07:54:48;4.40;;;4.00;;
67768;SDS011;54569;52.018;5.584;2023-06-24T07:57:14;6.70;;;4.60;;
67768;SDS011;54569;52.018;5.584;2023-06-24T07:59:39;8.73;;;4.32;;
67768;SDS011;54569;52.018;5.584;2023-06-24T08:02:05;4.97;;;4.45;;
67768;SDS011;54569;52.018;5.584;2023-06-24T08:04:31;5.72;;;4.38;;
67768;SDS011;54569;52.018;5.584;2023-06-24T08:06:57;4.35;;;3.95;;
67768;SDS011;54569;52.018;5.584;2023-06-24T08:09:23;5.00;;;4.20;;
67768;SDS011;54569;52.018;5.584;2023-06-24T08:11:48;6.13;;;4.50;;
67768;SDS011;54569;52.018;5.584;2023-06-24T08:14:14;4.53;;;4.10;;
67768;SDS011;54569;52.018;5.584;2023-06-24T08:16:40;6.10;;;4.72;;
67768;SDS011;54569;52.018;5.584;2023-06-24T08:19:05;6.82;;;5.03;;
67768;SDS011;54569;52.018;5.584;2023-06-24T08:21:31;5.72;;;4.25;;
67768;SDS011;54569;52.018;5.584;2023-06-24T08:23:57;5.00;;;4.25;;
67768;SDS011;54569;52.018;5.584;2023-06-24T08:26:23;3.88;;;3.58;;
67768;SDS011;54569;52.018;5.584;2023-06-24T08:28:48;3.90;;;3.53;;
67768;SDS011;54569;52.018;5.584;2023-06-24T08:31:14;4.03;;;3.38;;
67768;SDS011;54569;52.018;5.584;2023-06-24T08:33:44;6.13;;;3.60;;
67768;SDS011;54569;52.018;5.584;2023-06-24T08:36:12;5.68;;;4.80;;
67768;SDS011;54569;52.018;5.584;2023-06-24T08:38:38;6.40;;;5.80;;
67768;SDS011;54569;52.018;5.584;2023-06-24T08:41:04;6.50;;;5.55;;
67768;SDS011;54569;52.018;5.584;2023-06-24T08:43:29;8.63;;;5.97;;
67768;SDS011;54569;52.018;5.584;2023-06-24T08:45:55;8.25;;;5.07;;
67768;SDS011;54569;52.018;5.584;2023-06-24T08:48:21;5.47;;;4.88;;
67768;SDS011;54569;52.018;5.584;2023-06-24T08:50:49;5.38;;;4.43;;
67768;SDS011;54569;52.018;5.584;2023-06-24T08:53:18;5.60;;;4.80;;
67768;SDS011;54569;52.018;5.584;2023-06-24T08:55:45;5.63;;;4.82;;
67768;SDS011;54569;52.018;5.584;2023-06-24T08:58:12;4.63;;;4.22;;
67768;SDS011;54569;52.018;5.584;2023-06-24T09:00:38;6.18;;;4.20;;
67768;SDS011;54569;52.018;5.584;2023-06-24T09:03:05;5.18;;;4.68;;
67768;SDS011;54569;52.018;5.584;2023-06-24T09:05:30;6.50;;;4.72;;
67768;SDS011;54569;52.018;5.584;2023-06-24T09:07:56;5.30;;;4.47;;
67768;SDS011;54569;52.018;5.584;2023-06-24T09:10:31;6.03;;;4.18;;
67768;SDS011;54569;52.018;5.584;2023-06-24T09:13:01;4.88;;;4.28;;
67768;SDS011;54569;52.018;5.584;2023-06-24T09:15:35;5.93;;;4.25;;
67768;SDS011;54569;52.018;5.584;2023-06-24T09:18:02;5.18;;;4.68;;
67768;SDS011;54569;52.018;5.584;2023-06-24T09:20:30;4.90;;;4.45;;
67768;SDS011;54569;52.018;5.584;2023-06-24T09:23:01;4.63;;;4.20;;
67768;SDS011;54569;52.018;5.584;2023-06-24T09:25:28;4.10;;;3.70;;
67768;SDS011;54569;52.018;5.584;2023-06-24T09:27:54;4.30;;;3.90;;
67768;SDS011;54569;52.018;5.584;2023-06-24T09:30:23;4.88;;;4.45;;
67768;SDS011;54569;52.018;5.584;2023-06-24T09:32:49;4.68;;;4.13;;
67768;SDS011;54569;52.018;5.584;2023-06-24T09:35:18;5.18;;;4.68;;
67768;SDS011;54569;52.018;5.584;2023-06-24T09:37:54;7.85;;;5.18;;
67768;SDS011;54569;52.018;5.584;2023-06-24T09:42:51;8.52;;;6.45;;
67768;SDS011;54569;52.018;5.584;2023-06-24T09:45:23;6.13;;;5.53;;
67768;SDS011;54569;52.018;5.584;2023-06-24T09:47:49;6.63;;;5.93;;
67768;SDS011;54569;52.018;5.584;2023-06-24T09:50:15;5.30;;;4.80;;
67768;SDS011;54569;52.018;5.584;2023-06-24T09:52:40;5.97;;;5.28;;
67768;SDS011;54569;52.018;5.584;2023-06-24T09:55:08;5.85;;;4.38;;
67768;SDS011;54569;52.018;5.584;2023-06-24T09:57:35;9.73;;;6.03;;
67768;SDS011;54569;52.018;5.584;2023-06-24T10:00:01;6.63;;;5.20;;
67768;SDS011;54569;52.018;5.584;2023-06-24T10:02:31;5.93;;;5.43;;
67768;SDS011;54569;52.018;5.584;2023-06-24T10:04:57;6.00;;;5.43;;
67768;SDS011;54569;52.018;5.584;2023-06-24T10:07:25;6.20;;;5.60;;
67768;SDS011;54569;52.018;5.584;2023-06-24T10:09:52;6.07;;;5.47;;
67768;SDS011;54569;52.018;5.584;2023-06-24T10:12:18;8.48;;;6.40;;
67768;SDS011;54569;52.018;5.584;2023-06-24T10:14:44;6.45;;;5.88;;
67768;SDS011;54569;52.018;5.584;2023-06-24T10:17:11;6.55;;;5.90;;
67768;SDS011;54569;52.018;5.584;2023-06-24T10:19:40;7.32;;;6.22;;
67768;SDS011;54569;52.018;5.584;2023-06-24T10:22:07;7.72;;;6.28;;
67768;SDS011;54569;52.018;5.584;2023-06-24T10:24:35;7.60;;;6.80;;
67768;SDS011;54569;52.018;5.584;2023-06-24T10:27:05;7.68;;;6.28;;
67768;SDS011;54569;52.018;5.584;2023-06-24T10:29:33;6.90;;;5.80;;
67768;SDS011;54569;52.018;5.584;2023-06-24T10:32:09;6.53;;;5.80;;
67768;SDS011;54569;52.018;5.584;2023-06-24T10:39:53;5.85;;;5.35;;
67768;SDS011;54569;52.018;5.584;2023-06-24T10:44:55;6.15;;;5.38;;
67768;SDS011;54569;52.018;5.584;2023-06-24T10:47:25;6.07;;;5.55;;
67768;SDS011;54569;52.018;5.584;2023-06-24T10:49:52;5.78;;;5.28;;
67768;SDS011;54569;52.018;5.584;2023-06-24T10:52:19;7.72;;;5.57;;
67768;SDS011;54569;52.018;5.584;2023-06-24T10:54:46;5.28;;;4.85;;
67768;SDS011;54569;52.018;5.584;2023-06-24T10:57:12;5.80;;;5.28;;
67768;SDS011;54569;52.018;5.584;2023-06-24T10:59:41;6.30;;;5.70;;
67768;SDS011;54569;52.018;5.584;2023-06-24T11:07:16;6.22;;;5.63;;
67768;SDS011;54569;52.018;5.584;2023-06-24T11:09:51;6.65;;;5.85;;
67768;SDS011;54569;52.018;5.584;2023-06-24T11:12:18;6.80;;;6.20;;
67768;SDS011;54569;52.018;5.584;2023-06-24T11:14:44;6.45;;;5.85;;
67768;SDS011;54569;52.018;5.584;2023-06-24T11:17:10;9.45;;;5.80;;
67768;SDS011;54569;52.018;5.584;2023-06-24T11:19:36;7.70;;;6.63;;
67768;SDS011;54569;52.018;5.584;2023-06-24T11:22:07;6.13;;;5.60;;
67768;SDS011;54569;52.018;5.584;2023-06-24T11:24:34;5.70;;;5.20;;
67768;SDS011;54569;52.018;5.584;2023-06-24T11:27:01;6.47;;;5.50;;
67768;SDS011;54569;52.018;5.584;2023-06-24T11:29:29;5.55;;;5.00;;
67768;SDS011;54569;52.018;5.584;2023-06-24T11:31:58;6.03;;;5.45;;
67768;SDS011;54569;52.018;5.584;2023-06-24T11:34:24;6.80;;;5.28;;
67768;SDS011;54569;52.018;5.584;2023-06-24T11:36:50;5.95;;;5.35;;
67768;SDS011;54569;52.018;5.584;2023-06-24T11:39:26;7.35;;;6.68;;
67768;SDS011;54569;52.018;5.584;2023-06-24T11:41:53;7.53;;;6.70;;
67768;SDS011;54569;52.018;5.584;2023-06-24T11:44:25;6.20;;;5.70;;
67768;SDS011;54569;52.018;5.584;2023-06-24T11:46:51;6.53;;;5.25;;
67768;SDS011;54569;52.018;5.584;2023-06-24T11:49:18;6.57;;;4.30;;
67768;SDS011;54569;52.018;5.584;2023-06-24T11:51:51;4.32;;;3.70;;
67768;SDS011;54569;52.018;5.584;2023-06-24T11:54:18;5.10;;;4.60;;
67768;SDS011;54569;52.018;5.584;2023-06-24T11:56:49;5.30;;;4.80;;
67768;SDS011;54569;52.018;5.584;2023-06-24T11:59:20;4.45;;;4.13;;
67768;SDS011;54569;52.018;5.584;2023-06-24T12:01:55;5.07;;;4.18;;
67768;SDS011;54569;52.018;5.584;2023-06-24T12:04:29;4.70;;;4.30;;
67768;SDS011;54569;52.018;5.584;2023-06-24T12:06:56;4.80;;;4.40;;
67768;SDS011;54569;52.018;5.584;2023-06-24T12:09:22;5.13;;;4.72;;
67768;SDS011;54569;52.018;5.584;2023-06-24T12:11:49;4.32;;;4.00;;
67768;SDS011;54569;52.018;5.584;2023-06-24T12:14:15;4.40;;;4.07;;
67768;SDS011;54569;52.018;5.584;2023-06-24T12:16:40;5.22;;;4.40;;
67768;SDS011;54569;52.018;5.584;2023-06-24T12:19:06;4.40;;;4.10;;
67768;SDS011;54569;52.018;5.584;2023-06-24T12:21:33;4.43;;;3.97;;
67768;SDS011;54569;52.018;5.584;2023-06-24T12:23:59;5.95;;;3.75;;
67768;SDS011;54569;52.018;5.584;2023-06-24T12:26:25;4.68;;;3.97;;
67768;SDS011;54569;52.018;5.584;2023-06-24T12:28:53;4.18;;;3.78;;
67768;SDS011;54569;52.018;5.584;2023-06-24T12:31:21;4.68;;;4.10;;
67768;SDS011;54569;52.018;5.584;2023-06-24T12:33:47;4.65;;;4.15;;
67768;SDS011;54569;52.018;5.584;2023-06-24T12:36:12;4.88;;;4.35;;
67768;SDS011;54569;52.018;5.584;2023-06-24T12:38:39;6.97;;;4.53;;
67768;SDS011;54569;52.018;5.584;2023-06-24T12:41:05;4.80;;;4.30;;
67768;SDS011;54569;52.018;5.584;2023-06-24T12:43:32;5.97;;;5.47;;
67768;SDS011;54569;52.018;5.584;2023-06-24T12:45:57;6.65;;;5.00;;
67768;SDS011;54569;52.018;5.584;2023-06-24T12:48:23;5.70;;;4.55;;
67768;SDS011;54569;52.018;5.584;2023-06-24T12:50:49;6.25;;;5.65;;
67768;SDS011;54569;52.018;5.584;2023-06-24T12:53:18;5.68;;;4.75;;
67768;SDS011;54569;52.018;5.584;2023-06-24T12:55:44;5.10;;;4.65;;
67768;SDS011;54569;52.018;5.584;2023-06-24T12:58:10;5.20;;;4.68;;
67768;SDS011;54569;52.018;5.584;2023-06-24T13:00:35;5.57;;;5.05;;
67768;SDS011;54569;52.018;5.584;2023-06-24T13:03:01;7.50;;;5.40;;
67768;SDS011;54569;52.018;5.584;2023-06-24T13:05:27;5.72;;;5.15;;
67768;SDS011;54569;52.018;5.584;2023-06-24T13:07:54;5.53;;;5.03;;
67768;SDS011;54569;52.018;5.584;2023-06-24T13:10:20;5.38;;;4.88;;
67768;SDS011;54569;52.018;5.584;2023-06-24T13:12:47;5.65;;;4.53;;
67768;SDS011;54569;52.018;5.584;2023-06-24T13:15:13;4.50;;;4.20;;
67768;SDS011;54569;52.018;5.584;2023-06-24T13:17:40;6.05;;;4.90;;
67768;SDS011;54569;52.018;5.584;2023-06-24T13:20:07;5.55;;;4.53;;
67768;SDS011;54569;52.018;5.584;2023-06-24T13:22:32;4.78;;;4.32;;
67768;SDS011;54569;52.018;5.584;2023-06-24T13:24:58;4.30;;;3.95;;
67768;SDS011;54569;52.018;5.584;2023-06-24T13:27:24;6.82;;;5.15;;
67768;SDS011;54569;52.018;5.584;2023-06-24T13:29:49;7.00;;;5.03;;
67768;SDS011;54569;52.018;5.584;2023-06-24T13:32:15;4.47;;;4.05;;
67768;SDS011;54569;52.018;5.584;2023-06-24T13:34:41;5.88;;;4.85;;
67768;SDS011;54569;52.018;5.584;2023-06-24T13:37:07;4.65;;;4.22;;
67768;SDS011;54569;52.018;5.584;2023-06-24T13:39:32;5.13;;;4.45;;
67768;SDS011;54569;52.018;5.584;2023-06-24T13:41:58;5.13;;;4.38;;
67768;SDS011;54569;52.018;5.584;2023-06-24T13:44:24;5.15;;;4.30;;
67768;SDS011;54569;52.018;5.584;2023-06-24T13:46:49;4.72;;;4.32;;
67768;SDS011;54569;52.018;5.584;2023-06-24T13:49:18;5.43;;;4.90;;
67768;SDS011;54569;52.018;5.584;2023-06-24T13:51:44;5.30;;;4.40;;
67768;SDS011;54569;52.018;5.584;2023-06-24T13:54:10;5.82;;;5.32;;
67768;SDS011;54569;52.018;5.584;2023-06-24T13:56:36;6.15;;;4.53;;
67768;SDS011;54569;52.018;5.584;2023-06-24T13:59:01;5.45;;;4.40;;
67768;SDS011;54569;52.018;5.584;2023-06-24T14:01:27;5.18;;;4.72;;
67768;SDS011;54569;52.018;5.584;2023-06-24T14:03:54;4.75;;;4.35;;
67768;SDS011;54569;52.018;5.584;2023-06-24T14:06:22;5.68;;;4.45;;
67768;SDS011;54569;52.018;5.584;2023-06-24T14:08:49;4.90;;;4.00;;
67768;SDS011;54569;52.018;5.584;2023-06-24T14:11:16;4.78;;;4.35;;
67768;SDS011;54569;52.018;5.584;2023-06-24T14:13:42;4.65;;;4.25;;
67768;SDS011;54569;52.018;5.584;2023-06-24T14:16:09;6.93;;;4.90;;
67768;SDS011;54569;52.018;5.584;2023-06-24T14:18:38;4.25;;;3.95;;
67768;SDS011;54569;52.018;5.584;2023-06-24T14:21:04;5.43;;;4.93;;
67768;SDS011;54569;52.018;5.584;2023-06-24T14:23:32;5.03;;;4.55;;
67768;SDS011;54569;52.018;5.584;2023-06-24T14:25:58;5.95;;;4.25;;
67768;SDS011;54569;52.018;5.584;2023-06-24T14:28:24;5.55;;;4.72;;
67768;SDS011;54569;52.018;5.584;2023-06-24T14:30:51;5.95;;;4.72;;
67768;SDS011;54569;52.018;5.584;2023-06-24T14:33:17;5.20;;;4.60;;
67768;SDS011;54569;52.018;5.584;2023-06-24T14:35:43;5.57;;;4.80;;
67768;SDS011;54569;52.018;5.584;2023-06-24T14:38:09;5.20;;;4.68;;
67768;SDS011;54569;52.018;5.584;2023-06-24T14:40:34;5.50;;;5.00;;
67768;SDS011;54569;52.018;5.584;2023-06-24T14:43:00;4.85;;;4.38;;
67768;SDS011;54569;52.018;5.584;2023-06-24T14:45:26;5.55;;;4.57;;
67768;SDS011;54569;52.018;5.584;2023-06-24T14:47:52;5.88;;;5.15;;
67768;SDS011;54569;52.018;5.584;2023-06-24T14:50:18;5.28;;;4.88;;
67768;SDS011;54569;52.018;5.584;2023-06-24T14:52:44;5.13;;;4.70;;
67768;SDS011;54569;52.018;5.584;2023-06-24T14:55:10;4.45;;;3.90;;
67768;SDS011;54569;52.018;5.584;2023-06-24T14:57:36;7.15;;;4.55;;
67768;SDS011;54569;52.018;5.584;2023-06-24T15:00:02;6.05;;;5.13;;
67768;SDS011;54569;52.018;5.584;2023-06-24T15:02:29;5.32;;;4.93;;
67768;SDS011;54569;52.018;5.584;2023-06-24T15:04:54;5.38;;;4.80;;
67768;SDS011;54569;52.018;5.584;2023-06-24T15:07:20;6.00;;;5.05;;
67768;SDS011;54569;52.018;5.584;2023-06-24T15:09:46;5.20;;;4.65;;